SEMC

Coronel E Carvajal Airport

Airport
ICAO code
SEMC
IATA Code
XMS
Summary
ICAO Region
CARSAM
ICAO Territory
Location

, Morona-Santiago

Serving
Macas
Elevation
3452 ft
Coordinates
2° 17' 57" S , 78° 7' 15" W
Metar
Observation
SEMC 262200Z 06011KT 9999 -RA SCT026 BKN100 22/18 Q1015 RMK A2998
Station
Coronel E Carvajal Airport
Date/Time
2022-09-26 22:00:00
Wind direction
60°
Wind speed
11 kts
Lowest cloud amount
scattered clouds
Temperature
22°C
Dew point
18°C
Humidity
78%
QNH
1015 hPa
Weather condition
light rain

Runways

Designator Length Width Surface Rops
1/19 2500 30 ASP No/No

Airport map

Aerial View

SKYbrary Partners:

Safety knowledge contributed by: